TSA weather

Taipei Songshan Airport
Taipei City, Taipei (municipality), Taiwan

Public forecast

Using degrees Celsius for public forecast. Weather courtesy of forecast.io.

Current aviation weather report (METAR) for Taipei Songshan Airport

Retrieved 2019/10/17 01:30 UTC (0 seconds ago):

RCSS 170130Z 10009KT 9999 VCSH FEW015 BKN050 25/19 Q1019 NOSIG RMK A3010

Aviation forecast (TAF) for Taipei Songshan Airport

Retrieved 2019-10-17 00:00 UTC (1 hour ago):

TAF RCSS 162300Z 1700/1724 08005KT 9999 FEW016 BKN032 TEMPO 1702/1710 09010KT FEW012 BKN022 TEMPO 1712/1718 08008KT FEW010 BKN020 TEMPO 1718/1724 10010KT 5000 RA FEW010 BKN018